createdAt,value
2023-02-19T00:01:31.606Z,22.45
2023-02-19T00:04:01.405Z,22.10
2023-02-19T00:06:29.799Z,22.67
2023-02-19T00:08:56.636Z,22.23
2023-02-19T00:11:25.369Z,23.63
2023-02-19T00:13:53.407Z,21.52
2023-02-19T00:16:24.136Z,23.65
2023-02-19T00:18:51.044Z,20.92
2023-02-19T00:21:18.094Z,22.05
2023-02-19T00:23:48.929Z,23.20
2023-02-19T00:26:18.423Z,22.90
2023-02-19T00:28:47.511Z,24.05
2023-02-19T00:31:19.210Z,23.38
2023-02-19T00:33:46.776Z,22.50
2023-02-19T00:36:14.386Z,21.98
2023-02-19T00:38:42.435Z,24.02
2023-02-19T00:41:21.605Z,22.70
2023-02-19T00:43:56.264Z,23.80
2023-02-19T00:46:27.928Z,23.80
2023-02-19T00:48:54.994Z,23.58
2023-02-19T00:51:22.833Z,24.55
2023-02-19T00:53:49.654Z,23.33
2023-02-19T00:56:16.290Z,24.25
2023-02-19T00:58:42.924Z,24.02
2023-02-19T01:01:10.720Z,23.67
2023-02-19T01:03:38.448Z,24.60
2023-02-19T01:06:06.538Z,22.60
2023-02-19T01:08:33.625Z,22.00
2023-02-19T01:11:02.061Z,23.20
2023-02-19T01:13:28.920Z,23.17
2023-02-19T01:16:08.161Z,22.20
2023-02-19T01:18:35.533Z,23.27
2023-02-19T01:21:28.915Z,22.45
2023-02-19T01:23:55.974Z,23.10
2023-02-19T01:26:29.788Z,21.35
2023-02-19T01:28:56.470Z,22.23
2023-02-19T01:31:24.454Z,22.17
2023-02-19T01:33:57.110Z,19.90
2023-02-19T01:36:23.926Z,20.05
2023-02-19T01:38:50.722Z,18.52
2023-02-19T01:41:20.386Z,18.38
2023-02-19T01:44:01.531Z,18.05
2023-02-19T01:46:35.543Z,15.57
2023-02-19T01:49:04.661Z,15.43
2023-02-19T01:51:31.932Z,14.73
2023-02-19T01:54:01.408Z,12.80
2023-02-19T01:56:28.954Z,12.52
2023-02-19T01:58:55.665Z,12.23
2023-02-19T02:01:22.294Z,10.77
2023-02-19T02:03:50.425Z,10.23
2023-02-19T02:06:27.406Z,9.95
2023-02-19T02:09:15.128Z,10.98
2023-02-19T02:11:47.331Z,10.60
2023-02-19T02:14:17.261Z,10.68
2023-02-19T02:17:11.370Z,10.30
2023-02-19T02:20:02.146Z,9.25
2023-02-19T02:22:38.714Z,9.88
2023-02-19T02:25:12.103Z,9.35
2023-02-19T02:28:13.327Z,8.80
2023-02-19T02:30:46.503Z,8.65
2023-02-19T02:33:26.411Z,8.77
2023-02-19T02:36:33.770Z,9.23
2023-02-19T02:39:01.668Z,8.50
2023-02-19T02:41:28.462Z,9.27
2023-02-19T02:43:55.044Z,10.18
2023-02-19T02:46:27.888Z,9.60
2023-02-19T02:48:58.958Z,9.02
2023-02-19T02:51:36.652Z,9.73
2023-02-19T02:54:38.933Z,8.35
2023-02-19T02:57:14.708Z,8.63
2023-02-19T02:59:49.170Z,8.77
2023-02-19T03:02:23.941Z,8.18
2023-02-19T03:05:24.461Z,8.25
2023-02-19T03:08:10.215Z,8.20
2023-02-19T03:10:45.086Z,7.80
2023-02-19T03:13:34.309Z,7.47
2023-02-19T03:16:45.143Z,7.47
2023-02-19T03:19:20.362Z,8.43
2023-02-19T03:21:54.449Z,7.63
2023-02-19T03:24:43.153Z,8.57
2023-02-19T03:27:10.550Z,8.95
2023-02-19T03:29:43.239Z,8.43
2023-02-19T03:32:17.081Z,9.02
2023-02-19T03:35:05.746Z,10.40
2023-02-19T03:37:37.684Z,9.95
2023-02-19T03:40:04.553Z,10.02
2023-02-19T03:42:37.460Z,9.13
2023-02-19T03:45:45.468Z,8.85
2023-02-19T03:48:20.929Z,9.27
2023-02-19T03:51:07.460Z,9.38
2023-02-19T03:53:54.826Z,9.65
2023-02-19T03:56:27.473Z,9.65
2023-02-19T03:59:13.197Z,10.23
2023-02-19T04:01:44.873Z,10.07
2023-02-19T04:04:19.572Z,11.40
2023-02-19T04:06:55.895Z,10.90
2023-02-19T04:09:25.501Z,10.25
2023-02-19T04:11:59.492Z,11.15
2023-02-19T04:14:30.520Z,11.63
2023-02-19T04:17:03.359Z,11.20
2023-02-19T04:19:31.719Z,11.60
2023-02-19T04:21:59.008Z,10.68
2023-02-19T04:24:29.959Z,11.43
2023-02-19T04:26:56.605Z,10.98
2023-02-19T04:29:23.262Z,8.27
2023-02-19T04:31:49.956Z,6.50
2023-02-19T04:34:16.598Z,4.78
2023-02-19T04:36:43.242Z,4.60
2023-02-19T04:39:09.869Z,4.50
2023-02-19T04:41:36.453Z,3.97
2023-02-19T04:44:02.990Z,3.75
2023-02-19T04:46:29.645Z,3.90
2023-02-19T04:48:56.245Z,3.67
2023-02-19T04:51:22.921Z,3.75
2023-02-19T04:53:49.641Z,4.28
2023-02-19T04:56:17.096Z,3.60
2023-02-19T04:58:44.543Z,3.80
2023-02-19T05:01:11.944Z,3.42
2023-02-19T05:03:38.935Z,3.08
2023-02-19T05:06:07.894Z,3.47
2023-02-19T05:08:34.648Z,3.85
2023-02-19T05:11:02.302Z,3.55
2023-02-19T05:13:29.044Z,3.67
2023-02-19T05:16:04.444Z,3.50
2023-02-19T05:18:31.869Z,3.90
2023-02-19T05:20:59.277Z,3.90
2023-02-19T05:23:26.979Z,3.58
2023-02-19T05:25:53.668Z,3.70
2023-02-19T05:28:20.718Z,3.05
2023-02-19T05:30:49.504Z,4.35
2023-02-19T05:33:17.221Z,4.45
2023-02-19T05:35:49.012Z,4.22
2023-02-19T05:38:16.213Z,4.15
2023-02-19T05:40:43.084Z,3.72
2023-02-19T05:43:10.296Z,4.10
2023-02-19T05:45:37.088Z,3.45
2023-02-19T05:48:04.269Z,4.28
2023-02-19T05:50:32.707Z,3.85
2023-02-19T05:53:11.284Z,3.53
2023-02-19T05:55:37.865Z,4.10
2023-02-19T05:58:05.322Z,4.00
2023-02-19T06:00:33.340Z,3.63
2023-02-19T06:03:00.180Z,3.90
2023-02-19T06:05:26.777Z,3.40
2023-02-19T06:07:53.387Z,3.92
2023-02-19T06:10:19.976Z,3.53
2023-02-19T06:12:46.535Z,4.60
2023-02-19T06:15:13.114Z,4.97
2023-02-19T06:17:39.740Z,4.22
2023-02-19T06:20:06.734Z,4.90
2023-02-19T06:22:33.332Z,4.85
2023-02-19T06:24:59.876Z,4.85
2023-02-19T06:27:26.428Z,5.22
2023-02-19T06:29:53.034Z,5.13
2023-02-19T06:32:19.734Z,4.93
2023-02-19T06:34:46.371Z,4.47
2023-02-19T06:37:12.937Z,4.88
2023-02-19T06:39:39.517Z,4.95
2023-02-19T06:42:06.091Z,4.75
2023-02-19T06:44:32.704Z,4.35
2023-02-19T06:46:59.255Z,4.75
2023-02-19T06:49:26.162Z,4.82
2023-02-19T06:51:52.816Z,4.47
2023-02-19T06:54:19.423Z,3.92
2023-02-19T06:56:47.127Z,3.55
2023-02-19T06:59:16.991Z,3.42
2023-02-19T07:01:44.711Z,3.80
2023-02-19T07:04:11.796Z,3.95
2023-02-19T07:06:38.613Z,3.85
2023-02-19T07:09:06.709Z,3.97
2023-02-19T07:11:34.369Z,4.20
2023-02-19T07:14:03.275Z,3.67
2023-02-19T07:16:30.324Z,3.50
2023-02-19T07:18:58.291Z,3.95
2023-02-19T07:21:25.127Z,3.53
2023-02-19T07:23:52.222Z,3.85
2023-02-19T07:26:19.773Z,3.90
2023-02-19T07:28:48.164Z,3.70
2023-02-19T07:31:15.964Z,4.05
2023-02-19T07:33:44.439Z,3.85
2023-02-19T07:36:11.527Z,4.35
2023-02-19T07:38:38.192Z,4.57
2023-02-19T07:41:05.835Z,4.47
2023-02-19T07:43:34.969Z,1.90
2023-02-19T07:46:05.969Z,2.70
2023-02-19T07:48:34.086Z,5.38
2023-02-19T07:51:01.679Z,5.10
2023-02-19T07:53:29.090Z,4.47
2023-02-19T07:56:00.592Z,5.32
2023-02-19T07:58:27.550Z,4.63
2023-02-19T08:00:54.130Z,4.78
2023-02-19T08:03:20.772Z,2.22
2023-02-19T08:05:49.844Z,3.30
2023-02-19T08:08:17.124Z,3.50
2023-02-19T08:11:02.368Z,2.67
2023-02-19T08:13:30.811Z,3.42
2023-02-19T08:16:18.335Z,3.95
2023-02-19T08:18:48.063Z,3.58
2023-02-19T08:21:14.964Z,3.10
2023-02-19T08:23:41.584Z,3.08
2023-02-19T08:26:09.769Z,2.45
2023-02-19T08:28:36.552Z,2.45
2023-02-19T08:31:06.432Z,1.90
2023-02-19T08:33:33.059Z,3.20
2023-02-19T08:36:07.583Z,3.15
2023-02-19T08:38:35.975Z,3.33
2023-02-19T08:41:10.961Z,2.80
2023-02-19T08:43:37.796Z,2.60
2023-02-19T08:46:04.695Z,2.30
2023-02-19T08:48:31.342Z,2.58
2023-02-19T08:51:00.425Z,2.42
2023-02-19T08:53:27.051Z,2.42
2023-02-19T08:55:53.719Z,2.20
2023-02-19T08:58:20.314Z,2.10
2023-02-19T09:00:47.163Z,3.30
2023-02-19T09:03:13.755Z,5.35
2023-02-19T09:05:40.696Z,4.50
2023-02-19T09:08:07.236Z,2.97
2023-02-19T09:10:33.824Z,2.22
2023-02-19T09:13:00.802Z,1.83
2023-02-19T09:15:29.508Z,2.22
2023-02-19T09:17:56.368Z,2.30
2023-02-19T09:20:23.042Z,2.95
2023-02-19T09:22:49.653Z,3.13
2023-02-19T09:25:16.262Z,2.88
2023-02-19T09:27:42.994Z,2.05
2023-02-19T09:30:09.907Z,3.05
2023-02-19T09:32:36.544Z,1.75
2023-02-19T09:35:03.077Z,1.67
2023-02-19T09:37:29.662Z,1.42
2023-02-19T09:39:56.223Z,2.90
2023-02-19T09:42:25.102Z,1.70
2023-02-19T09:44:54.150Z,1.90
2023-02-19T09:47:23.428Z,1.50
2023-02-19T09:49:54.380Z,1.35
2023-02-19T09:52:39.690Z,1.48
2023-02-19T09:55:27.653Z,1.40
2023-02-19T09:57:54.219Z,1.40
2023-02-19T10:00:21.789Z,1.70
2023-02-19T10:02:52.129Z,1.75
2023-02-19T10:05:18.874Z,1.70
2023-02-19T10:07:48.145Z,1.40
2023-02-19T10:10:14.711Z,1.42
2023-02-19T10:12:46.721Z,1.52
2023-02-19T10:15:30.130Z,1.58
2023-02-19T10:17:56.710Z,1.50
2023-02-19T10:20:27.701Z,1.17
2023-02-19T10:23:03.665Z,1.40
2023-02-19T10:25:31.101Z,1.50
2023-02-19T10:27:59.433Z,1.40
2023-02-19T10:30:30.576Z,1.67
2023-02-19T10:33:14.886Z,1.63
2023-02-19T10:36:04.116Z,1.40
2023-02-19T10:38:33.623Z,1.20
2023-02-19T10:41:14.896Z,1.25
2023-02-19T10:43:45.231Z,1.65
2023-02-19T10:46:18.218Z,2.17
2023-02-19T10:48:59.191Z,1.88
2023-02-19T10:51:36.893Z,1.95
2023-02-19T10:54:21.628Z,0.80
2023-02-19T10:56:48.303Z,0.70
2023-02-19T10:59:23.568Z,0.50
2023-02-19T11:01:57.680Z,0.80
2023-02-19T11:04:25.964Z,1.85
2023-02-19T11:06:52.932Z,0.93
2023-02-19T11:09:26.673Z,0.80
2023-02-19T11:11:54.330Z,0.63
2023-02-19T11:14:24.169Z,0.60
2023-02-19T11:16:56.439Z,0.77
2023-02-19T11:19:24.751Z,1.35
2023-02-19T11:21:51.725Z,0.70
2023-02-19T11:24:34.043Z,1.27
2023-02-19T11:27:05.941Z,1.15
2023-02-19T11:29:34.978Z,1.38
2023-02-19T11:32:37.276Z,0.70
2023-02-19T11:35:33.386Z,1.80
2023-02-19T11:38:01.353Z,0.80
2023-02-19T11:40:40.186Z,0.77
2023-02-19T11:43:40.550Z,0.50
2023-02-19T11:46:32.815Z,0.50
2023-02-19T11:49:29.182Z,0.70
2023-02-19T11:52:03.675Z,0.80
2023-02-19T11:54:43.556Z,0.82
2023-02-19T11:57:22.671Z,0.60
2023-02-19T12:00:27.225Z,0.50
2023-02-19T12:05:41.513Z,0.52
2023-02-19T12:08:30.628Z,0.70
2023-02-19T12:11:00.070Z,0.65
2023-02-19T12:14:14.774Z,0.63
2023-02-19T12:16:50.190Z,0.70
2023-02-19T12:19:39.250Z,0.60
2023-02-19T12:22:21.329Z,0.82
2023-02-19T12:25:06.700Z,0.68
2023-02-19T12:27:51.678Z,0.45
2023-02-19T12:30:24.493Z,0.60
2023-02-19T12:33:06.069Z,0.52
2023-02-19T12:35:42.802Z,0.60
2023-02-19T12:38:18.074Z,0.73
2023-02-19T12:41:29.080Z,0.68
2023-02-19T12:44:00.377Z,0.93
2023-02-19T12:46:39.706Z,1.25
2023-02-19T12:49:22.683Z,1.27
2023-02-19T12:51:50.861Z,1.02
2023-02-19T12:54:28.440Z,0.85
2023-02-19T12:56:57.861Z,7.03
2023-02-19T12:59:30.026Z,2.78
2023-02-19T13:02:05.958Z,1.48
2023-02-19T13:04:47.877Z,1.05
2023-02-19T13:07:17.653Z,1.00
2023-02-19T13:09:59.303Z,0.80
2023-02-19T13:12:29.677Z,0.90
2023-02-19T13:15:16.828Z,0.60
2023-02-19T13:17:55.362Z,0.68
2023-02-19T13:20:36.342Z,0.70
2023-02-19T13:23:35.044Z,0.88
2023-02-19T13:26:26.633Z,0.85
2023-02-19T13:29:17.094Z,0.88
2023-02-19T13:32:14.125Z,1.00
2023-02-19T13:34:43.662Z,0.70
2023-02-19T13:37:11.402Z,0.50
2023-02-19T13:39:51.911Z,1.63
2023-02-19T13:42:33.395Z,0.70
2023-02-19T13:45:01.416Z,0.50
2023-02-19T13:47:48.024Z,1.05
2023-02-19T13:50:27.935Z,1.50
2023-02-19T13:52:56.109Z,13.80
2023-02-19T13:55:52.069Z,17.38
2023-02-19T13:58:34.014Z,2.55
2023-02-19T14:01:02.854Z,1.50
2023-02-19T14:03:35.695Z,0.63
2023-02-19T14:06:06.046Z,1.00
2023-02-19T14:08:44.780Z,1.20
2023-02-19T14:11:14.305Z,3.42
2023-02-19T14:13:50.053Z,1.45
2023-02-19T14:16:33.411Z,3.05
2023-02-19T14:18:59.989Z,2.55
2023-02-19T14:21:35.933Z,1.20
2023-02-19T14:24:02.758Z,1.65
2023-02-19T14:26:31.935Z,1.85
2023-02-19T14:28:59.266Z,1.40
2023-02-19T14:31:33.329Z,1.10
2023-02-19T14:34:22.312Z,0.90
2023-02-19T14:36:55.728Z,1.30
2023-02-19T14:39:27.319Z,1.88
2023-02-19T14:41:57.260Z,46.63
2023-02-19T14:44:26.478Z,16.98
2023-02-19T14:47:03.338Z,16.05
2023-02-19T14:49:49.242Z,21.27
2023-02-19T14:52:20.417Z,33.80
2023-02-19T14:54:55.754Z,5.57
2023-02-19T14:57:26.125Z,1.77
2023-02-19T15:00:00.689Z,1.05
2023-02-19T15:02:29.433Z,0.90
2023-02-19T15:04:56.538Z,1.20
2023-02-19T15:07:30.554Z,1.20
2023-02-19T15:10:05.007Z,0.70
2023-02-19T15:12:42.095Z,0.93
2023-02-19T15:15:09.484Z,0.80
2023-02-19T15:17:38.334Z,0.70
2023-02-19T15:20:10.659Z,0.95
2023-02-19T15:22:39.863Z,1.17
2023-02-19T15:25:07.323Z,1.77
2023-02-19T15:27:35.087Z,0.98
2023-02-19T15:30:01.700Z,0.70
2023-02-19T15:32:28.519Z,1.20
2023-02-19T15:35:00.591Z,0.70
2023-02-19T15:37:30.197Z,0.82
2023-02-19T15:39:59.274Z,0.80
2023-02-19T15:42:34.752Z,0.77
2023-02-19T15:45:17.664Z,0.65
2023-02-19T15:47:56.320Z,0.65
2023-02-19T15:50:27.153Z,0.90
2023-02-19T15:52:59.764Z,0.90
2023-02-19T15:55:45.934Z,0.90
2023-02-19T15:58:21.480Z,1.40
2023-02-19T16:00:53.032Z,1.95
2023-02-19T16:03:22.198Z,1.35
2023-02-19T16:06:05.100Z,1.50
2023-02-19T16:08:33.633Z,1.00
2023-02-19T16:11:06.515Z,0.88
2023-02-19T16:13:34.341Z,1.15
2023-02-19T16:16:03.416Z,1.48
2023-02-19T16:18:30.400Z,4.38
2023-02-19T16:20:57.178Z,10.88
2023-02-19T16:23:25.386Z,23.98
2023-02-19T16:26:00.630Z,9.32
2023-02-19T16:28:29.503Z,10.70
2023-02-19T16:31:04.330Z,15.55
2023-02-19T16:33:37.145Z,16.38
2023-02-19T16:36:34.907Z,40.72
2023-02-19T16:39:07.424Z,38.60
2023-02-19T16:42:06.664Z,11.30
2023-02-19T16:44:35.788Z,6.10
2023-02-19T16:47:16.565Z,4.30
2023-02-19T16:49:44.160Z,7.35
2023-02-19T16:52:15.297Z,3.58
2023-02-19T16:54:41.949Z,3.60
2023-02-19T16:57:08.537Z,1.20
2023-02-19T16:59:35.096Z,1.90
2023-02-19T17:02:04.729Z,1.20
2023-02-19T17:04:31.476Z,2.42
2023-02-19T17:06:58.347Z,4.50
2023-02-19T17:09:24.995Z,3.00
2023-02-19T17:11:51.603Z,1.77
2023-02-19T17:14:18.266Z,1.35
2023-02-19T17:16:44.975Z,1.30
2023-02-19T17:19:16.968Z,2.08
2023-02-19T17:21:45.161Z,1.85
2023-02-19T17:24:12.152Z,2.35
2023-02-19T17:26:38.847Z,8.52
2023-02-19T17:29:06.775Z,5.13
2023-02-19T17:31:34.226Z,30.33
2023-02-19T17:34:01.668Z,8.70
2023-02-19T17:36:30.807Z,3.75
2023-02-19T17:38:58.750Z,10.25
2023-02-19T17:41:25.520Z,3.38
2023-02-19T17:43:52.205Z,9.48
2023-02-19T17:46:21.257Z,4.32
2023-02-19T17:48:47.907Z,8.55
2023-02-19T17:51:14.761Z,6.00
2023-02-19T17:53:41.832Z,1.55
2023-02-19T17:56:09.032Z,1.77
2023-02-19T17:58:36.584Z,6.55
2023-02-19T18:01:03.202Z,3.60
2023-02-19T18:03:30.097Z,2.20
2023-02-19T18:05:56.739Z,4.18
2023-02-19T18:08:23.327Z,2.28
2023-02-19T18:10:49.966Z,2.30
2023-02-19T18:13:16.636Z,2.85
2023-02-19T18:15:43.279Z,2.20
2023-02-19T18:18:10.091Z,2.25
2023-02-19T18:20:36.939Z,2.28
2023-02-19T18:23:04.078Z,2.10
2023-02-19T18:25:30.760Z,2.15
2023-02-19T18:27:59.339Z,2.33
2023-02-19T18:30:26.217Z,2.58
2023-02-19T18:32:52.839Z,2.20
2023-02-19T18:35:20.565Z,2.70
2023-02-19T18:37:53.631Z,3.63
2023-02-19T18:40:21.625Z,2.67
2023-02-19T18:42:48.316Z,2.80
2023-02-19T18:45:15.038Z,3.03
2023-02-19T18:47:41.638Z,4.35
2023-02-19T18:50:09.748Z,4.85
2023-02-19T18:52:36.448Z,6.38
2023-02-19T18:55:03.244Z,2.40
2023-02-19T18:57:29.894Z,2.33
2023-02-19T18:59:56.485Z,2.42
2023-02-19T19:02:23.353Z,2.40
2023-02-19T19:04:51.831Z,3.08
2023-02-19T19:07:19.105Z,3.03
2023-02-19T19:09:45.870Z,14.82
2023-02-19T19:12:12.735Z,5.43
2023-02-19T19:14:39.416Z,5.80
2023-02-19T19:17:05.995Z,8.95
2023-02-19T19:19:32.656Z,12.90
2023-02-19T19:21:59.285Z,4.57
2023-02-19T19:24:25.961Z,2.55
2023-02-19T19:26:53.127Z,2.03
2023-02-19T19:29:21.991Z,3.08
2023-02-19T19:31:48.986Z,2.53
2023-02-19T19:34:15.860Z,2.63
2023-02-19T19:36:42.478Z,2.63
2023-02-19T19:39:09.255Z,2.05
2023-02-19T19:41:35.881Z,2.97
2023-02-19T19:44:04.801Z,1.95
2023-02-19T19:46:31.829Z,2.17
2023-02-19T19:48:58.642Z,1.90
2023-02-19T19:51:33.557Z,2.20
2023-02-19T19:54:01.032Z,3.05
2023-02-19T19:56:27.724Z,2.63
2023-02-19T19:58:54.353Z,3.22
2023-02-19T20:01:21.367Z,2.42
2023-02-19T20:03:48.290Z,2.10
2023-02-19T20:06:14.926Z,2.45
2023-02-19T20:08:41.563Z,2.55
2023-02-19T20:11:08.241Z,2.35
2023-02-19T20:13:34.864Z,2.17
2023-02-19T20:16:01.630Z,2.65
2023-02-19T20:18:28.515Z,2.10
2023-02-19T20:20:55.346Z,2.10
2023-02-19T20:23:22.001Z,2.47
2023-02-19T20:25:48.641Z,2.20
2023-02-19T20:28:15.236Z,2.30
2023-02-19T20:30:43.635Z,2.10
2023-02-19T20:33:10.314Z,2.10
2023-02-19T20:35:36.937Z,2.35
2023-02-19T20:38:03.522Z,2.20
2023-02-19T20:40:31.294Z,2.08
2023-02-19T20:43:00.679Z,2.20
2023-02-19T20:45:28.329Z,2.22
2023-02-19T20:47:54.955Z,2.17
2023-02-19T20:50:23.222Z,1.90
2023-02-19T20:52:50.104Z,1.83
2023-02-19T20:55:17.041Z,1.88
2023-02-19T20:57:43.626Z,1.73
2023-02-19T21:00:11.449Z,1.88
2023-02-19T21:02:38.204Z,1.60
2023-02-19T21:05:05.084Z,1.85
2023-02-19T21:07:31.740Z,1.40
2023-02-19T21:09:58.345Z,1.92
2023-02-19T21:12:24.962Z,1.83
2023-02-19T21:14:51.560Z,1.50
2023-02-19T21:17:18.259Z,1.55
2023-02-19T21:19:44.830Z,1.50
2023-02-19T21:22:11.558Z,1.77
2023-02-19T21:24:38.162Z,1.60
2023-02-19T21:27:04.751Z,2.20
2023-02-19T21:29:31.309Z,2.03
2023-02-19T21:31:58.253Z,1.90
2023-02-19T21:34:27.789Z,2.20
2023-02-19T21:36:55.155Z,1.95
2023-02-19T21:39:23.765Z,1.90
2023-02-19T21:41:50.380Z,1.95
2023-02-19T21:44:17.267Z,2.10
2023-02-19T21:46:43.959Z,2.50
2023-02-19T21:49:11.833Z,2.58
2023-02-19T21:51:40.733Z,2.55
2023-02-19T21:54:08.089Z,2.97
2023-02-19T21:56:36.586Z,3.05
2023-02-19T21:59:03.756Z,3.40
2023-02-19T22:01:35.425Z,3.40
2023-02-19T22:04:02.166Z,3.60
2023-02-19T22:06:30.491Z,3.78
2023-02-19T22:08:58.830Z,4.30
2023-02-19T22:11:25.897Z,4.00
2023-02-19T22:13:52.586Z,4.35
2023-02-19T22:16:19.417Z,4.80
2023-02-19T22:18:50.754Z,4.90
2023-02-19T22:21:17.624Z,4.38
2023-02-19T22:23:45.843Z,4.85
2023-02-19T22:26:23.447Z,4.88
2023-02-19T22:28:50.592Z,4.63
2023-02-19T22:31:18.941Z,4.40
2023-02-19T22:33:45.703Z,4.32
2023-02-19T22:36:15.087Z,4.13
2023-02-19T22:38:41.637Z,4.30
2023-02-19T22:41:08.382Z,3.95
2023-02-19T22:43:34.974Z,3.78
2023-02-19T22:46:01.675Z,4.15
2023-02-19T22:48:30.512Z,4.00
2023-02-19T22:50:58.910Z,3.90
2023-02-19T22:53:25.595Z,4.30
2023-02-19T22:55:52.323Z,3.72
2023-02-19T22:58:18.948Z,3.42
2023-02-19T23:00:45.629Z,3.53
2023-02-19T23:03:12.725Z,3.95
2023-02-19T23:05:39.301Z,3.70
2023-02-19T23:08:05.857Z,4.10
2023-02-19T23:10:33.018Z,3.58
2023-02-19T23:12:59.666Z,3.88
2023-02-19T23:15:26.245Z,3.67
2023-02-19T23:17:52.988Z,3.83
2023-02-19T23:20:19.566Z,3.85
2023-02-19T23:22:46.187Z,3.80
2023-02-19T23:25:13.059Z,3.88
2023-02-19T23:27:39.679Z,3.85
2023-02-19T23:30:06.974Z,3.97
2023-02-19T23:32:33.610Z,4.57
2023-02-19T23:35:00.322Z,4.72
2023-02-19T23:37:27.096Z,4.35
2023-02-19T23:39:53.659Z,4.85
2023-02-19T23:42:20.222Z,4.97
2023-02-19T23:44:47.496Z,5.43
2023-02-19T23:47:14.412Z,4.95
2023-02-19T23:49:41.334Z,5.88
2023-02-19T23:52:08.169Z,6.15
2023-02-19T23:54:34.901Z,6.25
2023-02-19T23:57:01.626Z,6.50
2023-02-19T23:59:28.250Z,7.13
